Terminal Aerodrome Forecast
Issued by NWS Charleston, WV

Current Version | Previous Version | Graphics & Text | Print | Product List | Glossary On
Versions: 1 2 3 4 5 6 7 8 9 10 11 12 13 14 15 16 17 18 19 20 21 22 23 24 25 26 27
000
FTUS41 KRLX 142300
TAFBKW
TAF
KBKW 142332Z 1500/1524 19006KT P6SM OVC045
     FM150500 18010KT 4SM BR OVC020
     FM150800 20010KT 4SM BR OVC015
     FM151000 20010KT 2SM BR OVC012
     FM151200 26009KT 2SM -SHRA OVC010
     FM151400 30013KT 2SM -SHRA OVC008
     FM151600 31016G23KT 2SM -SHRA OVC008
     FM151700 31016G24KT 2SM -SHRA OVC010
     FM151900 31016G25KT 3SM -SHRASN OVC015
     FM152200 32016G26KT 4SM -SHSN OVC020
     FM152300 32016G25KT 6SM BR OVC025=

USA.gov is the U.S. government's official web portal to all federal, state and local government web resources and services.